sensor_id;sensor_type;location;lat;lon;timestamp;pressure;altitude;pressure_sealevel;temperature;humidity
49611;BME280;35515;48.766;9.176;2022-07-15T00:01:59;98636.81;;;22.46;39.20
49611;BME280;35515;48.766;9.176;2022-07-15T00:04:27;98649.47;;;22.58;38.63
49611;BME280;35515;48.766;9.176;2022-07-15T00:06:53;98638.44;;;22.58;39.47
49611;BME280;35515;48.766;9.176;2022-07-15T00:09:20;98644.81;;;22.48;38.66
49611;BME280;35515;48.766;9.176;2022-07-15T00:12:07;98645.41;;;22.45;39.40
49611;BME280;35515;48.766;9.176;2022-07-15T00:14:33;98645.69;;;22.43;39.13
49611;BME280;35515;48.766;9.176;2022-07-15T00:17:00;98640.69;;;22.45;39.18
49611;BME280;35515;48.766;9.176;2022-07-15T00:19:28;98644.00;;;22.47;39.69
49611;BME280;35515;48.766;9.176;2022-07-15T00:21:54;98637.59;;;22.62;39.17
49611;BME280;35515;48.766;9.176;2022-07-15T00:24:22;98634.06;;;22.41;38.71
49611;BME280;35515;48.766;9.176;2022-07-15T00:26:48;98639.59;;;22.41;38.83
49611;BME280;35515;48.766;9.176;2022-07-15T00:29:15;98640.69;;;22.30;39.61
49611;BME280;35515;48.766;9.176;2022-07-15T00:31:41;98649.00;;;22.25;39.87
49611;BME280;35515;48.766;9.176;2022-07-15T00:34:08;98635.19;;;22.19;39.71
49611;BME280;35515;48.766;9.176;2022-07-15T00:36:36;98636.00;;;22.15;39.59
49611;BME280;35515;48.766;9.176;2022-07-15T00:39:03;98641.81;;;22.08;40.46
49611;BME280;35515;48.766;9.176;2022-07-15T00:41:35;98649.00;;;22.09;41.22
49611;BME280;35515;48.766;9.176;2022-07-15T00:44:02;98647.91;;;21.95;42.04
49611;BME280;35515;48.766;9.176;2022-07-15T00:46:29;98644.84;;;21.91;42.71
49611;BME280;35515;48.766;9.176;2022-07-15T00:48:57;98640.72;;;22.04;42.37
49611;BME280;35515;48.766;9.176;2022-07-15T00:51:24;98639.34;;;21.91;42.98
49611;BME280;35515;48.766;9.176;2022-07-15T00:53:53;98649.84;;;21.89;43.15
49611;BME280;35515;48.766;9.176;2022-07-15T00:56:21;98649.00;;;21.73;42.84
49611;BME280;35515;48.766;9.176;2022-07-15T00:58:51;98648.44;;;21.71;42.96
49611;BME280;35515;48.766;9.176;2022-07-15T01:01:19;98651.44;;;21.49;43.00
49611;BME280;35515;48.766;9.176;2022-07-15T01:03:47;98652.81;;;21.46;42.98
49611;BME280;35515;48.766;9.176;2022-07-15T01:06:14;98652.88;;;21.57;42.42
49611;BME280;35515;48.766;9.176;2022-07-15T01:08:41;98639.03;;;21.46;43.05
49611;BME280;35515;48.766;9.176;2022-07-15T01:11:09;98646.47;;;21.41;42.86
49611;BME280;35515;48.766;9.176;2022-07-15T01:13:35;98647.81;;;21.33;43.36
49611;BME280;35515;48.766;9.176;2022-07-15T01:16:03;98653.31;;;21.23;43.23
49611;BME280;35515;48.766;9.176;2022-07-15T01:18:30;98645.03;;;21.23;43.54
49611;BME280;35515;48.766;9.176;2022-07-15T01:20:58;98646.72;;;21.29;43.11
49611;BME280;35515;48.766;9.176;2022-07-15T01:23:24;98651.91;;;21.20;43.45
49611;BME280;35515;48.766;9.176;2022-07-15T01:25:51;98652.19;;;21.18;43.82
49611;BME280;35515;48.766;9.176;2022-07-15T01:28:19;98655.53;;;21.31;43.45
49611;BME280;35515;48.766;9.176;2022-07-15T01:30:46;98656.59;;;21.14;43.96
49611;BME280;35515;48.766;9.176;2022-07-15T01:33:13;98658.16;;;20.95;44.12
49611;BME280;35515;48.766;9.176;2022-07-15T01:35:40;98659.81;;;20.91;44.31
49611;BME280;35515;48.766;9.176;2022-07-15T01:38:08;98659.84;;;21.01;44.35
49611;BME280;35515;48.766;9.176;2022-07-15T01:40:35;98652.34;;;20.91;44.42
49611;BME280;35515;48.766;9.176;2022-07-15T01:43:01;98653.72;;;20.88;44.38
49611;BME280;35515;48.766;9.176;2022-07-15T01:45:28;98663.91;;;20.88;44.53
49611;BME280;35515;48.766;9.176;2022-07-15T01:47:55;98654.28;;;20.85;44.81
49611;BME280;35515;48.766;9.176;2022-07-15T01:50:21;98660.63;;;20.86;44.39
49611;BME280;35515;48.766;9.176;2022-07-15T01:52:47;98659.22;;;20.88;44.30
49611;BME280;35515;48.766;9.176;2022-07-15T01:55:15;98660.28;;;20.77;44.82
49611;BME280;35515;48.766;9.176;2022-07-15T01:57:41;98658.13;;;20.84;44.66
49611;BME280;35515;48.766;9.176;2022-07-15T02:00:09;98658.63;;;20.76;44.70
49611;BME280;35515;48.766;9.176;2022-07-15T02:02:37;98658.59;;;20.71;44.99
49611;BME280;35515;48.766;9.176;2022-07-15T02:05:04;98660.72;;;20.59;45.00
49611;BME280;35515;48.766;9.176;2022-07-15T02:07:31;98648.03;;;20.58;45.25
49611;BME280;35515;48.766;9.176;2022-07-15T02:09:57;98656.31;;;20.58;45.58
49611;BME280;35515;48.766;9.176;2022-07-15T02:12:25;98651.91;;;20.62;45.04
49611;BME280;35515;48.766;9.176;2022-07-15T02:14:52;98661.28;;;20.66;44.86
49611;BME280;35515;48.766;9.176;2022-07-15T02:17:18;98663.22;;;20.65;44.80
49611;BME280;35515;48.766;9.176;2022-07-15T02:19:45;98659.03;;;20.47;45.55
49611;BME280;35515;48.766;9.176;2022-07-15T02:22:12;98665.03;;;20.44;46.12
49611;BME280;35515;48.766;9.176;2022-07-15T02:24:38;98660.63;;;20.43;45.71
49611;BME280;35515;48.766;9.176;2022-07-15T02:27:05;98658.94;;;20.37;46.17
49611;BME280;35515;48.766;9.176;2022-07-15T02:29:33;98657.75;;;20.23;46.02
49611;BME280;35515;48.766;9.176;2022-07-15T02:31:59;98658.75;;;20.06;46.16
49611;BME280;35515;48.766;9.176;2022-07-15T02:34:26;98658.06;;;19.94;46.57
49611;BME280;35515;48.766;9.176;2022-07-15T02:36:52;98651.50;;;19.95;46.76
49611;BME280;35515;48.766;9.176;2022-07-15T02:39:19;98655.72;;;20.08;46.63
49611;BME280;35515;48.766;9.176;2022-07-15T02:41:45;98657.75;;;20.23;46.04
49611;BME280;35515;48.766;9.176;2022-07-15T02:44:12;98656.13;;;20.27;45.89
49611;BME280;35515;48.766;9.176;2022-07-15T02:46:41;98658.06;;;20.26;45.75
49611;BME280;35515;48.766;9.176;2022-07-15T02:49:08;98649.00;;;20.31;45.48
49611;BME280;35515;48.766;9.176;2022-07-15T02:51:34;98656.69;;;20.29;45.32
49611;BME280;35515;48.766;9.176;2022-07-15T02:54:01;98651.59;;;20.05;46.01
49611;BME280;35515;48.766;9.176;2022-07-15T02:56:28;98658.44;;;20.02;46.30
49611;BME280;35515;48.766;9.176;2022-07-15T02:58:54;98656.91;;;19.84;46.77
49611;BME280;35515;48.766;9.176;2022-07-15T03:01:21;98658.63;;;19.91;46.86
49611;BME280;35515;48.766;9.176;2022-07-15T03:03:49;98664.16;;;19.96;46.44
49611;BME280;35515;48.766;9.176;2022-07-15T03:06:16;98670.19;;;19.93;46.60
49611;BME280;35515;48.766;9.176;2022-07-15T03:08:43;98671.19;;;19.81;47.41
49611;BME280;35515;48.766;9.176;2022-07-15T03:11:09;98670.50;;;19.69;47.58
49611;BME280;35515;48.766;9.176;2022-07-15T03:13:36;98659.28;;;19.76;47.55
49611;BME280;35515;48.766;9.176;2022-07-15T03:16:02;98668.94;;;19.78;47.42
49611;BME280;35515;48.766;9.176;2022-07-15T03:18:29;98665.28;;;19.72;47.31
49611;BME280;35515;48.766;9.176;2022-07-15T03:20:58;98669.97;;;19.72;47.79
49611;BME280;35515;48.766;9.176;2022-07-15T03:23:24;98669.41;;;19.70;47.71
49611;BME280;35515;48.766;9.176;2022-07-15T03:25:51;98663.34;;;19.68;47.78
49611;BME280;35515;48.766;9.176;2022-07-15T03:28:17;98673.78;;;19.71;47.72
49611;BME280;35515;48.766;9.176;2022-07-15T03:30:45;98673.09;;;19.53;48.18
49611;BME280;35515;48.766;9.176;2022-07-15T03:33:12;98681.06;;;19.55;47.98
49611;BME280;35515;48.766;9.176;2022-07-15T03:35:38;98680.72;;;19.46;48.41
49611;BME280;35515;48.766;9.176;2022-07-15T03:38:08;98675.88;;;19.59;48.17
49611;BME280;35515;48.766;9.176;2022-07-15T03:40:34;98675.28;;;19.51;47.96
49611;BME280;35515;48.766;9.176;2022-07-15T03:43:01;98677.53;;;19.32;48.69
49611;BME280;35515;48.766;9.176;2022-07-15T03:45:28;98674.53;;;19.34;48.62
49611;BME280;35515;48.766;9.176;2022-07-15T03:47:54;98685.50;;;19.34;48.58
49611;BME280;35515;48.766;9.176;2022-07-15T03:50:21;98684.78;;;19.16;49.04
49611;BME280;35515;48.766;9.176;2022-07-15T03:52:48;98682.41;;;19.03;49.66
49611;BME280;35515;48.766;9.176;2022-07-15T03:55:15;98683.00;;;19.05;49.26
49611;BME280;35515;48.766;9.176;2022-07-15T03:57:42;98680.72;;;18.97;49.46
49611;BME280;35515;48.766;9.176;2022-07-15T04:00:09;98683.03;;;18.88;49.83
49611;BME280;35515;48.766;9.176;2022-07-15T04:02:37;98687.34;;;19.01;49.61
49611;BME280;35515;48.766;9.176;2022-07-15T04:05:04;98688.28;;;18.90;49.93
49611;BME280;35515;48.766;9.176;2022-07-15T04:07:31;98683.50;;;19.02;50.02
49611;BME280;35515;48.766;9.176;2022-07-15T04:09:58;98688.28;;;18.90;50.28
49611;BME280;35515;48.766;9.176;2022-07-15T04:12:26;98685.22;;;18.86;50.52
49611;BME280;35515;48.766;9.176;2022-07-15T04:14:52;98691.53;;;18.86;50.47
49611;BME280;35515;48.766;9.176;2022-07-15T04:17:19;98687.06;;;18.80;50.51
49611;BME280;35515;48.766;9.176;2022-07-15T04:19:46;98692.13;;;18.88;50.22
49611;BME280;35515;48.766;9.176;2022-07-15T04:22:13;98690.63;;;18.81;50.46
49611;BME280;35515;48.766;9.176;2022-07-15T04:24:39;98694.66;;;18.95;50.41
49611;BME280;35515;48.766;9.176;2022-07-15T04:27:06;98697.59;;;18.88;50.21
49611;BME280;35515;48.766;9.176;2022-07-15T04:29:34;98699.88;;;18.92;50.12
49611;BME280;35515;48.766;9.176;2022-07-15T04:32:01;98693.47;;;18.86;50.73
49611;BME280;35515;48.766;9.176;2022-07-15T04:34:28;98694.88;;;18.88;50.68
49611;BME280;35515;48.766;9.176;2022-07-15T04:36:54;98700.84;;;18.85;50.93
49611;BME280;35515;48.766;9.176;2022-07-15T04:39:21;98693.19;;;18.87;50.85
49611;BME280;35515;48.766;9.176;2022-07-15T04:41:47;98693.28;;;18.93;50.89
49611;BME280;35515;48.766;9.176;2022-07-15T04:44:15;98693.19;;;18.87;50.99
49611;BME280;35515;48.766;9.176;2022-07-15T04:46:43;98686.03;;;18.86;51.37
49611;BME280;35515;48.766;9.176;2022-07-15T04:49:10;98695.81;;;18.77;51.91
49611;BME280;35515;48.766;9.176;2022-07-15T04:51:54;98694.97;;;18.77;51.97
49611;BME280;35515;48.766;9.176;2022-07-15T04:54:21;98699.69;;;18.81;52.19
49611;BME280;35515;48.766;9.176;2022-07-15T04:56:47;98695.34;;;18.85;51.56
49611;BME280;35515;48.766;9.176;2022-07-15T04:59:14;98696.81;;;19.10;50.90
49611;BME280;35515;48.766;9.176;2022-07-15T05:01:40;98696.81;;;19.10;50.88
49611;BME280;35515;48.766;9.176;2022-07-15T05:04:08;98696.81;;;19.10;50.78
49611;BME280;35515;48.766;9.176;2022-07-15T05:06:35;98693.41;;;19.03;51.01
49611;BME280;35515;48.766;9.176;2022-07-15T05:09:02;98690.16;;;19.06;51.33
49611;BME280;35515;48.766;9.176;2022-07-15T05:11:28;98694.13;;;19.15;50.84
49611;BME280;35515;48.766;9.176;2022-07-15T05:13:55;98696.47;;;19.29;50.44
49611;BME280;35515;48.766;9.176;2022-07-15T05:16:22;98697.63;;;19.33;50.26
49611;BME280;35515;48.766;9.176;2022-07-15T05:18:48;98698.75;;;19.37;50.38
49611;BME280;35515;48.766;9.176;2022-07-15T05:21:16;98693.72;;;19.29;50.70
49611;BME280;35515;48.766;9.176;2022-07-15T05:23:43;98690.25;;;19.38;50.55
49611;BME280;35515;48.766;9.176;2022-07-15T05:26:10;98695.16;;;19.36;50.80
49611;BME280;35515;48.766;9.176;2022-07-15T05:28:37;98696.00;;;19.37;50.62
49611;BME280;35515;48.766;9.176;2022-07-15T05:31:04;98703.84;;;19.28;51.26
49611;BME280;35515;48.766;9.176;2022-07-15T05:33:31;98705.84;;;19.33;50.52
49611;BME280;35515;48.766;9.176;2022-07-15T05:35:57;98705.94;;;19.43;50.34
49611;BME280;35515;48.766;9.176;2022-07-15T05:38:26;98706.53;;;19.45;50.25
49611;BME280;35515;48.766;9.176;2022-07-15T05:40:52;98708.25;;;19.51;50.06
49611;BME280;35515;48.766;9.176;2022-07-15T05:43:19;98709.88;;;19.52;49.58
49611;BME280;35515;48.766;9.176;2022-07-15T05:45:46;98711.03;;;19.57;49.80
49611;BME280;35515;48.766;9.176;2022-07-15T05:48:13;98713.63;;;19.68;49.40
49611;BME280;35515;48.766;9.176;2022-07-15T05:50:39;98706.09;;;19.81;48.83
49611;BME280;35515;48.766;9.176;2022-07-15T05:53:06;98714.13;;;19.87;48.36
49611;BME280;35515;48.766;9.176;2022-07-15T05:55:34;98719.16;;;19.96;48.18
49611;BME280;35515;48.766;9.176;2022-07-15T05:58:00;98709.88;;;20.07;47.97
49611;BME280;35515;48.766;9.176;2022-07-15T06:00:27;98719.19;;;20.01;47.59
49611;BME280;35515;48.766;9.176;2022-07-15T06:02:53;98714.84;;;20.05;47.35
49611;BME280;35515;48.766;9.176;2022-07-15T06:05:20;98722.00;;;20.06;47.07
49611;BME280;35515;48.766;9.176;2022-07-15T06:07:47;98717.94;;;20.19;47.13
49611;BME280;35515;48.766;9.176;2022-07-15T06:10:14;98724.00;;;19.83;47.47
49611;BME280;35515;48.766;9.176;2022-07-15T06:12:42;98724.97;;;19.99;47.26
49611;BME280;35515;48.766;9.176;2022-07-15T06:15:09;98725.41;;;19.86;47.19
49611;BME280;35515;48.766;9.176;2022-07-15T06:17:36;98718.50;;;19.88;47.01
49611;BME280;35515;48.766;9.176;2022-07-15T06:20:04;98719.47;;;20.04;46.49
49611;BME280;35515;48.766;9.176;2022-07-15T06:22:30;98721.03;;;19.90;46.51
49611;BME280;35515;48.766;9.176;2022-07-15T06:24:57;98724.31;;;19.92;46.32
49611;BME280;35515;48.766;9.176;2022-07-15T06:27:23;98722.94;;;20.22;45.46
49611;BME280;35515;48.766;9.176;2022-07-15T06:29:52;98722.59;;;20.13;44.73
49611;BME280;35515;48.766;9.176;2022-07-15T06:32:18;98720.81;;;19.97;44.72
49611;BME280;35515;48.766;9.176;2022-07-15T06:34:45;98721.09;;;20.00;45.17
49611;BME280;35515;48.766;9.176;2022-07-15T06:37:11;98715.09;;;20.03;45.14
49611;BME280;35515;48.766;9.176;2022-07-15T06:39:38;98712.81;;;19.95;44.44
49611;BME280;35515;48.766;9.176;2022-07-15T06:42:05;98717.72;;;20.26;43.70
49611;BME280;35515;48.766;9.176;2022-07-15T06:44:32;98713.56;;;20.18;43.49
49611;BME280;35515;48.766;9.176;2022-07-15T06:47:00;98717.94;;;20.19;43.86
49611;BME280;35515;48.766;9.176;2022-07-15T06:49:28;98714.47;;;20.34;43.14
49611;BME280;35515;48.766;9.176;2022-07-15T06:51:55;98707.81;;;20.19;44.01
49611;BME280;35515;48.766;9.176;2022-07-15T06:54:21;98709.97;;;20.17;43.69
49611;BME280;35515;48.766;9.176;2022-07-15T06:56:48;98708.47;;;20.37;43.00
49611;BME280;35515;48.766;9.176;2022-07-15T06:59:14;98714.06;;;20.15;43.78
49611;BME280;35515;48.766;9.176;2022-07-15T07:01:41;98717.91;;;20.46;42.65
49611;BME280;35515;48.766;9.176;2022-07-15T07:04:09;98706.41;;;20.60;42.07
49611;BME280;35515;48.766;9.176;2022-07-15T07:06:35;98712.66;;;20.50;42.53
49611;BME280;35515;48.766;9.176;2022-07-15T07:09:02;98706.97;;;20.57;42.76
49611;BME280;35515;48.766;9.176;2022-07-15T07:11:29;98705.97;;;20.73;41.69
49611;BME280;35515;48.766;9.176;2022-07-15T07:13:56;98698.25;;;20.70;41.38
49611;BME280;35515;48.766;9.176;2022-07-15T07:16:22;98702.16;;;20.84;40.68
49611;BME280;35515;48.766;9.176;2022-07-15T07:18:49;98695.56;;;20.85;41.06
49611;BME280;35515;48.766;9.176;2022-07-15T07:21:18;98700.03;;;20.97;40.83
49611;BME280;35515;48.766;9.176;2022-07-15T07:23:45;98698.69;;;20.99;40.12
49611;BME280;35515;48.766;9.176;2022-07-15T07:26:13;98698.69;;;20.99;39.73
49611;BME280;35515;48.766;9.176;2022-07-15T07:28:40;98715.44;;;20.98;39.33
49611;BME280;35515;48.766;9.176;2022-07-15T07:31:07;98706.63;;;20.91;38.75
49611;BME280;35515;48.766;9.176;2022-07-15T07:33:34;98703.28;;;20.88;38.91
49611;BME280;35515;48.766;9.176;2022-07-15T07:36:02;98701.91;;;20.81;39.86
49611;BME280;35515;48.766;9.176;2022-07-15T07:38:31;98704.94;;;20.90;39.96
49611;BME280;35515;48.766;9.176;2022-07-15T07:40:58;98701.22;;;21.11;38.85
49611;BME280;35515;48.766;9.176;2022-07-15T07:43:26;98695.38;;;21.02;39.18
49611;BME280;35515;48.766;9.176;2022-07-15T07:45:53;98700.63;;;21.04;38.82
49611;BME280;35515;48.766;9.176;2022-07-15T07:48:20;98704.69;;;20.86;39.29
49611;BME280;35515;48.766;9.176;2022-07-15T07:50:47;98709.94;;;20.98;39.10
49611;BME280;35515;48.766;9.176;2022-07-15T07:53:14;98703.31;;;20.94;39.09
49611;BME280;35515;48.766;9.176;2022-07-15T07:55:42;98703.00;;;20.85;39.99
49611;BME280;35515;48.766;9.176;2022-07-15T07:58:08;98697.84;;;20.99;39.13
49611;BME280;35515;48.766;9.176;2022-07-15T08:00:37;98697.34;;;21.12;37.69
49611;BME280;35515;48.766;9.176;2022-07-15T08:03:03;98695.66;;;21.01;38.06
49611;BME280;35515;48.766;9.176;2022-07-15T08:05:30;98696.25;;;21.18;37.89
49611;BME280;35515;48.766;9.176;2022-07-15T08:08:07;98696.56;;;21.22;38.06
49611;BME280;35515;48.766;9.176;2022-07-15T08:10:34;98703.50;;;21.40;37.22
49611;BME280;35515;48.766;9.176;2022-07-15T08:13:02;98698.28;;;21.44;36.84
49611;BME280;35515;48.766;9.176;2022-07-15T08:15:29;98697.44;;;21.38;36.88
49611;BME280;35515;48.766;9.176;2022-07-15T08:17:56;98691.91;;;21.33;37.18
49611;BME280;35515;48.766;9.176;2022-07-15T08:20:23;98701.31;;;21.42;36.94
49611;BME280;35515;48.766;9.176;2022-07-15T08:22:49;98693.28;;;21.30;36.48
49611;BME280;35515;48.766;9.176;2022-07-15T08:25:23;98697.41;;;21.33;35.88
49611;BME280;35515;48.766;9.176;2022-07-15T08:27:50;98698.56;;;21.52;35.69
49611;BME280;35515;48.766;9.176;2022-07-15T08:30:18;98701.63;;;21.56;35.62
49611;BME280;35515;48.766;9.176;2022-07-15T08:32:44;98688.66;;;21.51;36.18
49611;BME280;35515;48.766;9.176;2022-07-15T08:35:11;98690.34;;;21.63;35.91
49611;BME280;35515;48.766;9.176;2022-07-15T08:37:38;98692.56;;;21.76;35.51
49611;BME280;35515;48.766;9.176;2022-07-15T08:40:08;98687.06;;;21.61;36.15
49611;BME280;35515;48.766;9.176;2022-07-15T08:42:35;98679.06;;;21.90;35.59
49611;BME280;35515;48.766;9.176;2022-07-15T08:45:06;98691.19;;;21.84;35.68
49611;BME280;35515;48.766;9.176;2022-07-15T08:47:38;98690.91;;;21.70;35.48
49611;BME280;35515;48.766;9.176;2022-07-15T08:50:05;98688.16;;;21.75;35.45
49611;BME280;35515;48.766;9.176;2022-07-15T08:52:33;98688.16;;;21.75;35.59
49611;BME280;35515;48.766;9.176;2022-07-15T08:55:00;98687.59;;;21.68;36.09
49611;BME280;35515;48.766;9.176;2022-07-15T08:57:27;98692.00;;;21.84;35.50
49611;BME280;35515;48.766;9.176;2022-07-15T08:59:53;98683.47;;;22.12;35.14
49611;BME280;35515;48.766;9.176;2022-07-15T09:02:20;98693.13;;;22.50;34.47
49611;BME280;35515;48.766;9.176;2022-07-15T09:05:20;98694.78;;;22.26;34.65
49611;BME280;35515;48.766;9.176;2022-07-15T09:07:56;98694.50;;;22.07;35.32
49611;BME280;35515;48.766;9.176;2022-07-15T09:10:25;98689.81;;;22.17;35.17
49611;BME280;35515;48.766;9.176;2022-07-15T09:12:52;98695.63;;;21.95;35.95
49611;BME280;35515;48.766;9.176;2022-07-15T09:15:30;98694.78;;;22.05;35.68
49611;BME280;35515;48.766;9.176;2022-07-15T09:18:05;98694.81;;;22.36;35.08
49611;BME280;35515;48.766;9.176;2022-07-15T09:20:34;98692.56;;;22.17;35.47
49611;BME280;35515;48.766;9.176;2022-07-15T09:23:02;98694.81;;;22.15;35.38
49611;BME280;35515;48.766;9.176;2022-07-15T09:25:30;98684.88;;;22.19;35.36
49611;BME280;35515;48.766;9.176;2022-07-15T09:27:59;98687.34;;;22.26;35.26
49611;BME280;35515;48.766;9.176;2022-07-15T09:30:28;98690.06;;;22.73;34.59
49611;BME280;35515;48.766;9.176;2022-07-15T09:33:14;98691.47;;;22.60;35.11
49611;BME280;35515;48.766;9.176;2022-07-15T09:36:07;98696.97;;;22.54;34.88
49611;BME280;35515;48.766;9.176;2022-07-15T09:38:43;98686.50;;;22.46;35.58
49611;BME280;35515;48.766;9.176;2022-07-15T09:41:13;98683.09;;;22.85;34.88
49611;BME280;35515;48.766;9.176;2022-07-15T09:43:48;98688.00;;;22.99;34.50
49611;BME280;35515;48.766;9.176;2022-07-15T09:46:17;98692.94;;;23.17;34.32
49611;BME280;35515;48.766;9.176;2022-07-15T09:48:45;98695.50;;;22.93;34.61
49611;BME280;35515;48.766;9.176;2022-07-15T09:51:14;98694.13;;;22.91;34.70
49611;BME280;35515;48.766;9.176;2022-07-15T09:53:41;98697.13;;;23.04;34.39
49611;BME280;35515;48.766;9.176;2022-07-15T09:56:10;98699.91;;;22.99;34.74
49611;BME280;35515;48.766;9.176;2022-07-15T09:58:38;98697.47;;;22.82;35.07
49611;BME280;35515;48.766;9.176;2022-07-15T10:01:06;98689.41;;;22.96;34.53
49611;BME280;35515;48.766;9.176;2022-07-15T10:03:33;98692.34;;;23.26;34.44
49611;BME280;35515;48.766;9.176;2022-07-15T10:06:00;98697.03;;;23.30;33.96
49611;BME280;35515;48.766;9.176;2022-07-15T10:08:29;98688.75;;;23.25;33.98
49611;BME280;35515;48.766;9.176;2022-07-15T10:10:57;98695.53;;;23.48;33.74
49611;BME280;35515;48.766;9.176;2022-07-15T10:16:31;98686.28;;;23.24;33.85
49611;BME280;35515;48.766;9.176;2022-07-15T10:19:12;98687.22;;;23.53;33.46
49611;BME280;35515;48.766;9.176;2022-07-15T10:21:45;98692.09;;;23.27;33.85
49611;BME280;35515;48.766;9.176;2022-07-15T10:24:31;98683.63;;;22.93;34.19
49611;BME280;35515;48.766;9.176;2022-07-15T10:27:14;98684.19;;;22.90;34.33
49611;BME280;35515;48.766;9.176;2022-07-15T10:29:44;98680.78;;;23.18;34.13
49611;BME280;35515;48.766;9.176;2022-07-15T10:32:12;98669.50;;;23.04;34.37
49611;BME280;35515;48.766;9.176;2022-07-15T10:34:38;98658.06;;;23.27;34.09
49611;BME280;35515;48.766;9.176;2022-07-15T10:37:07;98668.28;;;23.31;33.82
49611;BME280;35515;48.766;9.176;2022-07-15T10:39:55;98668.91;;;23.63;33.35
49611;BME280;35515;48.766;9.176;2022-07-15T10:42:23;98664.47;;;23.62;33.39
49611;BME280;35515;48.766;9.176;2022-07-15T10:45:08;98665.44;;;23.81;32.90
49611;BME280;35515;48.766;9.176;2022-07-15T10:47:35;98659.88;;;23.92;32.76
49611;BME280;35515;48.766;9.176;2022-07-15T10:50:35;98662.03;;;23.55;33.48
49611;BME280;35515;48.766;9.176;2022-07-15T10:53:21;98655.41;;;23.56;33.28
49611;BME280;35515;48.766;9.176;2022-07-15T10:55:51;98656.38;;;23.31;33.70
49611;BME280;35515;48.766;9.176;2022-07-15T10:58:18;98647.53;;;23.34;34.01
49611;BME280;35515;48.766;9.176;2022-07-15T11:00:46;98643.06;;;23.43;34.25
49611;BME280;35515;48.766;9.176;2022-07-15T11:03:14;98638.84;;;23.51;34.08
49611;BME280;35515;48.766;9.176;2022-07-15T11:06:01;98638.38;;;23.78;34.06
49611;BME280;35515;48.766;9.176;2022-07-15T11:08:50;98630.84;;;24.18;32.76
49611;BME280;35515;48.766;9.176;2022-07-15T11:11:46;98626.94;;;23.95;33.28
49611;BME280;35515;48.766;9.176;2022-07-15T11:17:21;98631.44;;;24.15;33.11
49611;BME280;35515;48.766;9.176;2022-07-15T11:19:53;98632.53;;;24.44;32.32
49611;BME280;35515;48.766;9.176;2022-07-15T11:22:22;98624.28;;;24.38;32.09
49611;BME280;35515;48.766;9.176;2022-07-15T11:24:49;98627.28;;;24.42;32.40
49611;BME280;35515;48.766;9.176;2022-07-15T11:27:17;98623.22;;;24.34;32.69
49611;BME280;35515;48.766;9.176;2022-07-15T11:29:48;98618.28;;;24.31;32.21
49611;BME280;35515;48.766;9.176;2022-07-15T11:32:17;98617.13;;;24.32;32.44
49611;BME280;35515;48.766;9.176;2022-07-15T11:34:51;98619.81;;;24.13;32.73
49611;BME280;35515;48.766;9.176;2022-07-15T11:37:18;98619.19;;;24.21;32.50
49611;BME280;35515;48.766;9.176;2022-07-15T11:40:04;98608.84;;;24.32;32.39
49611;BME280;35515;48.766;9.176;2022-07-15T11:42:33;98616.88;;;24.34;32.49
49611;BME280;35515;48.766;9.176;2022-07-15T11:45:31;98617.00;;;24.18;33.06
49611;BME280;35515;48.766;9.176;2022-07-15T11:47:58;98611.78;;;24.41;32.60
49611;BME280;35515;48.766;9.176;2022-07-15T11:50:25;98622.06;;;24.41;32.71
49611;BME280;35515;48.766;9.176;2022-07-15T11:52:55;98609.44;;;24.29;32.85
49611;BME280;35515;48.766;9.176;2022-07-15T11:55:21;98612.03;;;24.20;33.02
49611;BME280;35515;48.766;9.176;2022-07-15T11:57:50;98606.53;;;24.15;33.20
49611;BME280;35515;48.766;9.176;2022-07-15T12:00:17;98612.03;;;24.20;33.56
49611;BME280;35515;48.766;9.176;2022-07-15T12:03:05;98600.97;;;24.20;33.28
49611;BME280;35515;48.766;9.176;2022-07-15T12:05:32;98599.72;;;24.32;33.04
49611;BME280;35515;48.766;9.176;2022-07-15T12:07:58;98608.72;;;24.18;33.38
49611;BME280;35515;48.766;9.176;2022-07-15T12:10:33;98608.84;;;24.32;32.79
49611;BME280;35515;48.766;9.176;2022-07-15T12:13:01;98615.72;;;24.35;33.10
49611;BME280;35515;48.766;9.176;2022-07-15T12:15:30;98608.63;;;24.29;32.99
49611;BME280;35515;48.766;9.176;2022-07-15T12:17:57;98604.28;;;24.17;33.07
49611;BME280;35515;48.766;9.176;2022-07-15T12:20:24;98595.88;;;24.28;33.00
49611;BME280;35515;48.766;9.176;2022-07-15T12:23:02;98603.06;;;24.29;33.21
49611;BME280;35515;48.766;9.176;2022-07-15T12:25:28;98607.63;;;24.44;32.34
49611;BME280;35515;48.766;9.176;2022-07-15T12:27:55;98593.88;;;24.33;32.88
49611;BME280;35515;48.766;9.176;2022-07-15T12:30:30;98596.91;;;24.37;33.02
49611;BME280;35515;48.766;9.176;2022-07-15T12:33:13;98596.56;;;24.68;32.88
49611;BME280;35515;48.766;9.176;2022-07-15T12:35:39;98603.81;;;24.64;32.64
49611;BME280;35515;48.766;9.176;2022-07-15T12:38:06;98603.91;;;24.53;32.83
49611;BME280;35515;48.766;9.176;2022-07-15T12:40:33;98605.16;;;24.66;32.49
49611;BME280;35515;48.766;9.176;2022-07-15T12:42:59;98610.03;;;24.50;32.74
49611;BME280;35515;48.766;9.176;2022-07-15T12:45:34;98606.50;;;24.45;32.78
49611;BME280;35515;48.766;9.176;2022-07-15T12:48:03;98602.59;;;24.46;32.82
49611;BME280;35515;48.766;9.176;2022-07-15T12:50:31;98600.97;;;24.45;32.67
49611;BME280;35515;48.766;9.176;2022-07-15T12:52:59;98593.03;;;24.62;32.92
49611;BME280;35515;48.766;9.176;2022-07-15T12:55:28;98587.53;;;24.57;33.00
49611;BME280;35515;48.766;9.176;2022-07-15T12:58:04;98590.16;;;24.92;32.68
49611;BME280;35515;48.766;9.176;2022-07-15T13:00:32;98602.53;;;24.99;32.25
49611;BME280;35515;48.766;9.176;2022-07-15T13:03:05;98594.00;;;25.15;32.20
49611;BME280;35515;48.766;9.176;2022-07-15T13:05:34;98589.50;;;25.00;32.14
49611;BME280;35515;48.766;9.176;2022-07-15T13:08:03;98591.94;;;24.82;32.57
49611;BME280;35515;48.766;9.176;2022-07-15T13:10:30;98584.44;;;25.07;32.27
49611;BME280;35515;48.766;9.176;2022-07-15T13:12:57;98585.09;;;25.18;32.04
49611;BME280;35515;48.766;9.176;2022-07-15T13:15:24;98597.91;;;25.33;31.88